Barcelona, Spain

9:39 AM CEST on September 28, 2016 (GMT +0200)
El Prat | | Change Station

Elev 10 ft 41.29 °N, 2.07 °E | Updated 9 minutes ago

Partly Cloudy
Partly Cloudy
68 °F
Feels Like 68 °F
N
8
Wind Variable Wind from NNW

Today
High -- | Low -- °F
--% Chance of Precip.
Yesterday
High -- | Low -- °F
Precip. -- in
Pressure 30.36 in
Visibility 6.2 miles
Clouds Few 2500 ft
Dew Point 57 °F
Humidity 68%
Rainfall 0.00 in
Snow Depth Not available.
7:45 AM 7:37 PM
Waning Crescent, 7% visible
METAR LEBL 280730Z 33007KT 270V360 9999 FEW025 20/14 Q1028 NOSIG
Pressure 30.36 in
Visibility 6.2 miles
Clouds Few 2500 ft
Dew Point 57 °F
Humidity 68%
Rainfall 0.00 in
Snow Depth Not available.
7:45 AM 7:37 PM
Waning Crescent, 7% visible
METAR LEBL 280730Z 33007KT 270V360 9999 FEW025 20/14 Q1028 NOSIG

10-Day Weather Forecast

×

Almanac

Astronomy

Sep. 28, 2016 Rise Set
Actual Time
Civil Twilight
Nautical Twilight
Astronomical Twilight
Moon
Length of Visible Light
Length of Day
Tomorrow will be .
, % of the Moon is Illuminated

Today's Extremes

Country Highs Country Lows

Community

WunderPhotos

Upload Photos

1,942,216 photos uploaded!

WunderBlog® & News

Nearby

Air Quality

  Air Quality AQ Index Pollutant
Not available.

Snow Depth

Station Depth Elevation

Earthquake Activity

City Distance Mag. Time & Date
Minimum magnitude displayed is 2.5.

Coastal Water Temperatures

Place Temperature

Stations

Nearby Weather Stations

Station Location Temp. Windchill Dew Point Humidity Wind Precip. Elev Updated Type